sensor_id;sensor_type;location;lat;lon;timestamp;temperature;humidity
81307;DHT22;70775;50.846;3.224;2023-07-30T00:01:33;16.00;89.00
81307;DHT22;70775;50.846;3.224;2023-07-30T00:04:35;16.00;89.30
81307;DHT22;70775;50.846;3.224;2023-07-30T00:07:05;16.00;89.10
81307;DHT22;70775;50.846;3.224;2023-07-30T00:09:35;15.90;89.40
81307;DHT22;70775;50.846;3.224;2023-07-30T00:12:08;15.90;89.30
81307;DHT22;70775;50.846;3.224;2023-07-30T00:15:11;15.90;89.20
81307;DHT22;70775;50.846;3.224;2023-07-30T00:17:38;16.00;89.20
81307;DHT22;70775;50.846;3.224;2023-07-30T00:20:26;16.00;89.20
81307;DHT22;70775;50.846;3.224;2023-07-30T00:22:51;15.90;89.40
81307;DHT22;70775;50.846;3.224;2023-07-30T00:28:37;15.90;89.70
81307;DHT22;70775;50.846;3.224;2023-07-30T00:31:22;15.90;90.00
81307;DHT22;70775;50.846;3.224;2023-07-30T00:33:47;15.90;89.90
81307;DHT22;70775;50.846;3.224;2023-07-30T00:36:13;15.90;90.00
81307;DHT22;70775;50.846;3.224;2023-07-30T00:38:38;15.90;90.00
81307;DHT22;70775;50.846;3.224;2023-07-30T00:41:07;15.90;90.00
81307;DHT22;70775;50.846;3.224;2023-07-30T00:43:32;15.90;90.10
81307;DHT22;70775;50.846;3.224;2023-07-30T00:48:49;15.90;90.10
81307;DHT22;70775;50.846;3.224;2023-07-30T00:51:16;15.90;90.20
81307;DHT22;70775;50.846;3.224;2023-07-30T00:53:42;16.00;90.10
81307;DHT22;70775;50.846;3.224;2023-07-30T00:56:08;16.00;90.20
81307;DHT22;70775;50.846;3.224;2023-07-30T00:58:43;15.90;90.20
81307;DHT22;70775;50.846;3.224;2023-07-30T01:01:11;15.90;90.20
81307;DHT22;70775;50.846;3.224;2023-07-30T01:03:37;15.90;90.30
81307;DHT22;70775;50.846;3.224;2023-07-30T01:06:05;15.90;90.30
81307;DHT22;70775;50.846;3.224;2023-07-30T01:08:43;15.90;90.30
81307;DHT22;70775;50.846;3.224;2023-07-30T01:11:10;15.90;90.40
81307;DHT22;70775;50.846;3.224;2023-07-30T01:13:36;15.90;90.50
81307;DHT22;70775;50.846;3.224;2023-07-30T01:16:03;15.90;90.50
81307;DHT22;70775;50.846;3.224;2023-07-30T01:21:50;15.90;90.30
81307;DHT22;70775;50.846;3.224;2023-07-30T01:24:19;15.80;90.60
81307;DHT22;70775;50.846;3.224;2023-07-30T01:26:55;15.80;90.70
81307;DHT22;70775;50.846;3.224;2023-07-30T01:30:02;15.80;90.80
81307;DHT22;70775;50.846;3.224;2023-07-30T01:32:33;15.80;90.70
81307;DHT22;70775;50.846;3.224;2023-07-30T01:35:22;15.70;90.80
81307;DHT22;70775;50.846;3.224;2023-07-30T01:37:51;15.70;90.80
81307;DHT22;70775;50.846;3.224;2023-07-30T01:40:21;15.80;90.90
81307;DHT22;70775;50.846;3.224;2023-07-30T01:42:52;15.70;91.40
81307;DHT22;70775;50.846;3.224;2023-07-30T01:45:36;15.70;90.90
81307;DHT22;70775;50.846;3.224;2023-07-30T01:48:06;15.70;91.00
81307;DHT22;70775;50.846;3.224;2023-07-30T01:50:39;15.60;91.10
81307;DHT22;70775;50.846;3.224;2023-07-30T01:53:06;15.60;91.10
81307;DHT22;70775;50.846;3.224;2023-07-30T01:55:32;15.70;91.00
81307;DHT22;70775;50.846;3.224;2023-07-30T01:57:57;15.60;91.10
81307;DHT22;70775;50.846;3.224;2023-07-30T02:00:26;15.60;91.10
81307;DHT22;70775;50.846;3.224;2023-07-30T02:02:52;15.60;91.20
81307;DHT22;70775;50.846;3.224;2023-07-30T02:05:20;15.60;91.30
81307;DHT22;70775;50.846;3.224;2023-07-30T02:07:46;15.50;91.50
81307;DHT22;70775;50.846;3.224;2023-07-30T02:10:12;15.50;91.60
81307;DHT22;70775;50.846;3.224;2023-07-30T02:12:38;15.50;91.60
81307;DHT22;70775;50.846;3.224;2023-07-30T02:15:04;15.50;91.60
81307;DHT22;70775;50.846;3.224;2023-07-30T02:20:50;15.50;91.60
81307;DHT22;70775;50.846;3.224;2023-07-30T02:23:16;15.50;91.60
81307;DHT22;70775;50.846;3.224;2023-07-30T02:25:42;15.50;91.70
81307;DHT22;70775;50.846;3.224;2023-07-30T02:28:11;15.40;91.80
81307;DHT22;70775;50.846;3.224;2023-07-30T02:30:36;15.40;91.80
81307;DHT22;70775;50.846;3.224;2023-07-30T02:33:02;15.40;91.80
81307;DHT22;70775;50.846;3.224;2023-07-30T02:35:27;15.40;91.80
81307;DHT22;70775;50.846;3.224;2023-07-30T02:37:53;15.50;91.70
81307;DHT22;70775;50.846;3.224;2023-07-30T02:40:19;15.50;91.70
81307;DHT22;70775;50.846;3.224;2023-07-30T02:42:47;15.40;91.80
81307;DHT22;70775;50.846;3.224;2023-07-30T02:45:13;15.40;91.90
81307;DHT22;70775;50.846;3.224;2023-07-30T02:47:38;15.30;92.00
81307;DHT22;70775;50.846;3.224;2023-07-30T02:50:04;15.40;91.90
81307;DHT22;70775;50.846;3.224;2023-07-30T02:52:36;15.40;91.80
81307;DHT22;70775;50.846;3.224;2023-07-30T02:55:01;15.50;91.70
81307;DHT22;70775;50.846;3.224;2023-07-30T02:57:29;15.50;91.70
81307;DHT22;70775;50.846;3.224;2023-07-30T02:59:55;15.50;91.60
81307;DHT22;70775;50.846;3.224;2023-07-30T03:02:24;15.50;91.60
81307;DHT22;70775;50.846;3.224;2023-07-30T03:04:51;15.40;91.70
81307;DHT22;70775;50.846;3.224;2023-07-30T03:07:17;15.40;92.00
81307;DHT22;70775;50.846;3.224;2023-07-30T03:09:44;15.40;92.00
81307;DHT22;70775;50.846;3.224;2023-07-30T03:12:09;15.30;92.00
81307;DHT22;70775;50.846;3.224;2023-07-30T03:17:53;15.30;92.20
81307;DHT22;70775;50.846;3.224;2023-07-30T03:20:24;15.30;92.40
81307;DHT22;70775;50.846;3.224;2023-07-30T03:23:04;15.30;92.30
81307;DHT22;70775;50.846;3.224;2023-07-30T03:25:42;15.30;92.30
81307;DHT22;70775;50.846;3.224;2023-07-30T03:28:08;15.40;92.60
81307;DHT22;70775;50.846;3.224;2023-07-30T03:30:38;15.40;92.10
81307;DHT22;70775;50.846;3.224;2023-07-30T03:33:04;15.40;92.20
81307;DHT22;70775;50.846;3.224;2023-07-30T03:35:29;15.40;92.20
81307;DHT22;70775;50.846;3.224;2023-07-30T03:37:55;15.50;92.20
81307;DHT22;70775;50.846;3.224;2023-07-30T03:40:20;15.40;92.10
81307;DHT22;70775;50.846;3.224;2023-07-30T03:42:46;15.40;92.20
81307;DHT22;70775;50.846;3.224;2023-07-30T03:45:12;15.50;92.20
81307;DHT22;70775;50.846;3.224;2023-07-30T03:47:37;15.40;92.20
81307;DHT22;70775;50.846;3.224;2023-07-30T03:50:03;15.40;92.70
81307;DHT22;70775;50.846;3.224;2023-07-30T03:52:29;15.40;92.30
81307;DHT22;70775;50.846;3.224;2023-07-30T03:54:55;15.30;92.40
81307;DHT22;70775;50.846;3.224;2023-07-30T03:57:20;15.30;92.50
81307;DHT22;70775;50.846;3.224;2023-07-30T03:59:46;15.30;92.50
81307;DHT22;70775;50.846;3.224;2023-07-30T04:02:27;15.30;92.50
81307;DHT22;70775;50.846;3.224;2023-07-30T04:04:52;15.30;92.40
81307;DHT22;70775;50.846;3.224;2023-07-30T04:07:18;15.30;92.50
81307;DHT22;70775;50.846;3.224;2023-07-30T04:10:02;15.30;92.50
81307;DHT22;70775;50.846;3.224;2023-07-30T04:15:19;15.40;92.40
81307;DHT22;70775;50.846;3.224;2023-07-30T04:17:45;15.40;92.40
81307;DHT22;70775;50.846;3.224;2023-07-30T04:20:11;15.40;92.30
81307;DHT22;70775;50.846;3.224;2023-07-30T04:22:36;15.40;92.30
81307;DHT22;70775;50.846;3.224;2023-07-30T04:25:26;15.40;92.30
81307;DHT22;70775;50.846;3.224;2023-07-30T04:28:00;15.50;92.20
81307;DHT22;70775;50.846;3.224;2023-07-30T04:30:26;15.50;92.10
81307;DHT22;70775;50.846;3.224;2023-07-30T04:32:52;15.60;92.00
81307;DHT22;70775;50.846;3.224;2023-07-30T04:35:36;15.60;91.90
81307;DHT22;70775;50.846;3.224;2023-07-30T04:38:01;15.60;91.90
81307;DHT22;70775;50.846;3.224;2023-07-30T04:40:27;15.50;92.00
81307;DHT22;70775;50.846;3.224;2023-07-30T04:42:59;15.60;92.60
81307;DHT22;70775;50.846;3.224;2023-07-30T04:45:25;15.60;92.00
81307;DHT22;70775;50.846;3.224;2023-07-30T04:47:50;15.60;92.00
81307;DHT22;70775;50.846;3.224;2023-07-30T04:50:34;15.70;91.80
81307;DHT22;70775;50.846;3.224;2023-07-30T04:53:13;15.70;92.10
81307;DHT22;70775;50.846;3.224;2023-07-30T04:55:39;15.60;91.90
81307;DHT22;70775;50.846;3.224;2023-07-30T04:58:04;15.70;92.00
81307;DHT22;70775;50.846;3.224;2023-07-30T05:00:30;15.70;92.00
81307;DHT22;70775;50.846;3.224;2023-07-30T05:02:56;15.70;91.90
81307;DHT22;70775;50.846;3.224;2023-07-30T05:05:21;15.70;92.00
81307;DHT22;70775;50.846;3.224;2023-07-30T05:07:47;15.80;91.90
81307;DHT22;70775;50.846;3.224;2023-07-30T05:10:12;15.80;91.90
81307;DHT22;70775;50.846;3.224;2023-07-30T05:12:38;15.80;91.90
81307;DHT22;70775;50.846;3.224;2023-07-30T05:15:11;15.80;91.80
81307;DHT22;70775;50.846;3.224;2023-07-30T05:17:45;15.90;91.70
81307;DHT22;70775;50.846;3.224;2023-07-30T05:20:11;15.80;91.90
81307;DHT22;70775;50.846;3.224;2023-07-30T05:22:37;15.90;91.90
81307;DHT22;70775;50.846;3.224;2023-07-30T05:25:20;15.80;91.90
81307;DHT22;70775;50.846;3.224;2023-07-30T05:27:45;15.90;91.90
81307;DHT22;70775;50.846;3.224;2023-07-30T05:30:11;15.90;91.90
81307;DHT22;70775;50.846;3.224;2023-07-30T05:32:37;15.90;91.90
81307;DHT22;70775;50.846;3.224;2023-07-30T05:35:22;15.90;91.70
81307;DHT22;70775;50.846;3.224;2023-07-30T05:38:06;16.00;91.70
81307;DHT22;70775;50.846;3.224;2023-07-30T05:40:33;16.10;91.50
81307;DHT22;70775;50.846;3.224;2023-07-30T05:43:04;16.10;91.50
81307;DHT22;70775;50.846;3.224;2023-07-30T05:45:30;16.20;91.40
81307;DHT22;70775;50.846;3.224;2023-07-30T05:47:58;16.20;91.40
81307;DHT22;70775;50.846;3.224;2023-07-30T05:50:27;16.20;91.50
81307;DHT22;70775;50.846;3.224;2023-07-30T05:52:58;16.30;91.40
81307;DHT22;70775;50.846;3.224;2023-07-30T05:55:23;16.30;91.50
81307;DHT22;70775;50.846;3.224;2023-07-30T05:57:55;16.40;91.30
81307;DHT22;70775;50.846;3.224;2023-07-30T06:00:28;16.40;91.20
81307;DHT22;70775;50.846;3.224;2023-07-30T06:02:54;16.40;91.00
81307;DHT22;70775;50.846;3.224;2023-07-30T06:05:23;16.50;90.80
81307;DHT22;70775;50.846;3.224;2023-07-30T06:07:53;16.40;90.90
81307;DHT22;70775;50.846;3.224;2023-07-30T06:10:46;16.40;90.90
81307;DHT22;70775;50.846;3.224;2023-07-30T06:13:17;16.50;91.00
81307;DHT22;70775;50.846;3.224;2023-07-30T06:15:59;16.60;91.20
81307;DHT22;70775;50.846;3.224;2023-07-30T06:18:28;16.60;90.80
81307;DHT22;70775;50.846;3.224;2023-07-30T06:20:56;16.60;90.60
81307;DHT22;70775;50.846;3.224;2023-07-30T06:23:43;16.70;90.70
81307;DHT22;70775;50.846;3.224;2023-07-30T06:26:11;16.70;90.40
81307;DHT22;70775;50.846;3.224;2023-07-30T06:28:36;16.70;90.40
81307;DHT22;70775;50.846;3.224;2023-07-30T06:31:02;16.70;90.60
81307;DHT22;70775;50.846;3.224;2023-07-30T06:33:28;16.80;90.20
81307;DHT22;70775;50.846;3.224;2023-07-30T06:35:53;16.80;90.40
81307;DHT22;70775;50.846;3.224;2023-07-30T06:38:19;16.90;90.00
81307;DHT22;70775;50.846;3.224;2023-07-30T06:40:45;16.90;89.50
81307;DHT22;70775;50.846;3.224;2023-07-30T06:43:20;16.90;90.10
81307;DHT22;70775;50.846;3.224;2023-07-30T06:45:54;16.90;90.00
81307;DHT22;70775;50.846;3.224;2023-07-30T06:48:20;16.90;90.30
81307;DHT22;70775;50.846;3.224;2023-07-30T06:50:45;16.90;90.10
81307;DHT22;70775;50.846;3.224;2023-07-30T06:53:11;16.90;90.50
81307;DHT22;70775;50.846;3.224;2023-07-30T06:56:00;17.00;90.10
81307;DHT22;70775;50.846;3.224;2023-07-30T06:58:39;17.00;90.20
81307;DHT22;70775;50.846;3.224;2023-07-30T07:01:21;17.00;89.60
81307;DHT22;70775;50.846;3.224;2023-07-30T07:06:50;17.10;89.50
81307;DHT22;70775;50.846;3.224;2023-07-30T07:09:16;17.10;89.30
81307;DHT22;70775;50.846;3.224;2023-07-30T07:11:41;17.00;89.80
81307;DHT22;70775;50.846;3.224;2023-07-30T07:14:07;17.00;89.70
81307;DHT22;70775;50.846;3.224;2023-07-30T07:16:32;17.00;89.30
81307;DHT22;70775;50.846;3.224;2023-07-30T07:18:58;17.10;90.20
81307;DHT22;70775;50.846;3.224;2023-07-30T07:21:31;17.20;90.30
81307;DHT22;70775;50.846;3.224;2023-07-30T07:27:44;17.40;89.40
81307;DHT22;70775;50.846;3.224;2023-07-30T07:30:10;17.20;89.60
81307;DHT22;70775;50.846;3.224;2023-07-30T07:32:36;17.30;90.40
81307;DHT22;70775;50.846;3.224;2023-07-30T07:35:04;17.10;90.40
81307;DHT22;70775;50.846;3.224;2023-07-30T07:37:32;17.10;91.60
81307;DHT22;70775;50.846;3.224;2023-07-30T07:40:13;17.00;91.80
81307;DHT22;70775;50.846;3.224;2023-07-30T07:42:38;17.00;91.70
81307;DHT22;70775;50.846;3.224;2023-07-30T07:45:06;16.90;91.30
81307;DHT22;70775;50.846;3.224;2023-07-30T07:47:32;16.70;92.30
81307;DHT22;70775;50.846;3.224;2023-07-30T07:49:58;16.70;92.00
81307;DHT22;70775;50.846;3.224;2023-07-30T07:55:37;16.60;92.50
81307;DHT22;70775;50.846;3.224;2023-07-30T07:58:03;16.70;92.70
81307;DHT22;70775;50.846;3.224;2023-07-30T08:00:28;16.80;90.90
81307;DHT22;70775;50.846;3.224;2023-07-30T08:03:19;16.80;91.20
81307;DHT22;70775;50.846;3.224;2023-07-30T08:05:46;16.80;90.60
81307;DHT22;70775;50.846;3.224;2023-07-30T08:08:11;16.80;90.60
81307;DHT22;70775;50.846;3.224;2023-07-30T08:10:41;16.90;91.40
81307;DHT22;70775;50.846;3.224;2023-07-30T08:13:13;17.00;90.30
81307;DHT22;70775;50.846;3.224;2023-07-30T08:15:39;17.10;90.60
81307;DHT22;70775;50.846;3.224;2023-07-30T08:18:36;17.20;90.00
81307;DHT22;70775;50.846;3.224;2023-07-30T08:21:01;17.30;90.40
81307;DHT22;70775;50.846;3.224;2023-07-30T08:23:33;17.60;89.10
81307;DHT22;70775;50.846;3.224;2023-07-30T08:26:31;17.80;88.90
81307;DHT22;70775;50.846;3.224;2023-07-30T08:28:57;17.90;88.20
81307;DHT22;70775;50.846;3.224;2023-07-30T08:31:23;17.80;83.80
81307;DHT22;70775;50.846;3.224;2023-07-30T08:33:57;17.70;85.40
81307;DHT22;70775;50.846;3.224;2023-07-30T08:36:22;17.60;82.50
81307;DHT22;70775;50.846;3.224;2023-07-30T08:38:48;17.50;84.00
81307;DHT22;70775;50.846;3.224;2023-07-30T08:41:25;17.50;85.00
81307;DHT22;70775;50.846;3.224;2023-07-30T08:43:51;17.60;84.10
81307;DHT22;70775;50.846;3.224;2023-07-30T08:46:18;17.60;85.30
81307;DHT22;70775;50.846;3.224;2023-07-30T08:48:43;17.60;84.10
81307;DHT22;70775;50.846;3.224;2023-07-30T08:51:11;17.70;85.40
81307;DHT22;70775;50.846;3.224;2023-07-30T08:53:37;17.90;83.10
81307;DHT22;70775;50.846;3.224;2023-07-30T08:56:05;18.20;83.30
81307;DHT22;70775;50.846;3.224;2023-07-30T08:58:33;18.20;82.10
81307;DHT22;70775;50.846;3.224;2023-07-30T09:01:01;18.40;83.80
81307;DHT22;70775;50.846;3.224;2023-07-30T09:03:35;18.60;81.60
81307;DHT22;70775;50.846;3.224;2023-07-30T09:06:03;18.80;82.00
81307;DHT22;70775;50.846;3.224;2023-07-30T09:08:28;19.10;82.90
81307;DHT22;70775;50.846;3.224;2023-07-30T09:10:55;19.50;81.90
81307;DHT22;70775;50.846;3.224;2023-07-30T09:16:25;19.20;77.70
81307;DHT22;70775;50.846;3.224;2023-07-30T09:18:52;19.00;77.10
81307;DHT22;70775;50.846;3.224;2023-07-30T09:21:37;19.10;75.20
81307;DHT22;70775;50.846;3.224;2023-07-30T09:24:07;19.20;76.10
81307;DHT22;70775;50.846;3.224;2023-07-30T09:26:44;19.40;75.20
81307;DHT22;70775;50.846;3.224;2023-07-30T09:29:10;19.60;73.30
81307;DHT22;70775;50.846;3.224;2023-07-30T09:31:46;19.60;71.60
81307;DHT22;70775;50.846;3.224;2023-07-30T09:34:17;19.70;72.20
81307;DHT22;70775;50.846;3.224;2023-07-30T09:36:44;20.00;71.80
81307;DHT22;70775;50.846;3.224;2023-07-30T09:41:45;20.10;72.30
81307;DHT22;70775;50.846;3.224;2023-07-30T09:44:12;20.40;71.00
81307;DHT22;70775;50.846;3.224;2023-07-30T09:46:48;20.50;69.00
81307;DHT22;70775;50.846;3.224;2023-07-30T09:52:50;20.30;70.40
81307;DHT22;70775;50.846;3.224;2023-07-30T09:55:24;20.60;68.70
81307;DHT22;70775;50.846;3.224;2023-07-30T09:58:18;20.70;69.80
81307;DHT22;70775;50.846;3.224;2023-07-30T10:00:50;20.70;68.20
81307;DHT22;70775;50.846;3.224;2023-07-30T10:06:39;20.30;67.60
81307;DHT22;70775;50.846;3.224;2023-07-30T10:09:07;20.30;68.60
81307;DHT22;70775;50.846;3.224;2023-07-30T10:11:37;20.50;67.30
81307;DHT22;70775;50.846;3.224;2023-07-30T10:14:25;20.40;68.20
81307;DHT22;70775;50.846;3.224;2023-07-30T10:17:00;20.30;66.60
81307;DHT22;70775;50.846;3.224;2023-07-30T10:19:27;20.20;66.70
81307;DHT22;70775;50.846;3.224;2023-07-30T10:22:31;20.40;66.60
81307;DHT22;70775;50.846;3.224;2023-07-30T10:24:58;20.60;66.00
81307;DHT22;70775;50.846;3.224;2023-07-30T10:27:26;20.90;65.00
81307;DHT22;70775;50.846;3.224;2023-07-30T10:30:31;21.10;67.90
81307;DHT22;70775;50.846;3.224;2023-07-30T10:33:03;21.30;64.10
81307;DHT22;70775;50.846;3.224;2023-07-30T10:35:52;21.30;63.50
81307;DHT22;70775;50.846;3.224;2023-07-30T10:38:28;21.30;61.60
81307;DHT22;70775;50.846;3.224;2023-07-30T10:41:01;21.30;61.80
81307;DHT22;70775;50.846;3.224;2023-07-30T10:43:45;21.30;62.40
81307;DHT22;70775;50.846;3.224;2023-07-30T10:46:12;21.50;60.90
81307;DHT22;70775;50.846;3.224;2023-07-30T10:48:43;21.40;62.50
81307;DHT22;70775;50.846;3.224;2023-07-30T10:51:16;21.30;63.00
81307;DHT22;70775;50.846;3.224;2023-07-30T10:53:43;21.30;62.40
81307;DHT22;70775;50.846;3.224;2023-07-30T10:56:09;21.30;62.70
81307;DHT22;70775;50.846;3.224;2023-07-30T10:58:36;21.00;64.80
81307;DHT22;70775;50.846;3.224;2023-07-30T11:01:06;21.20;64.20
81307;DHT22;70775;50.846;3.224;2023-07-30T11:03:32;21.50;62.50
81307;DHT22;70775;50.846;3.224;2023-07-30T11:06:00;21.70;61.60
81307;DHT22;70775;50.846;3.224;2023-07-30T11:08:37;21.80;62.60
81307;DHT22;70775;50.846;3.224;2023-07-30T11:11:04;21.80;61.90
81307;DHT22;70775;50.846;3.224;2023-07-30T11:13:40;21.80;61.80
81307;DHT22;70775;50.846;3.224;2023-07-30T11:16:07;22.20;59.70
81307;DHT22;70775;50.846;3.224;2023-07-30T11:18:33;22.10;60.20
81307;DHT22;70775;50.846;3.224;2023-07-30T11:21:10;21.90;60.00
81307;DHT22;70775;50.846;3.224;2023-07-30T11:23:37;21.70;60.40
81307;DHT22;70775;50.846;3.224;2023-07-30T11:26:05;21.80;60.90
81307;DHT22;70775;50.846;3.224;2023-07-30T11:28:39;21.70;59.60
81307;DHT22;70775;50.846;3.224;2023-07-30T11:31:13;21.90;60.10
81307;DHT22;70775;50.846;3.224;2023-07-30T11:33:44;21.90;59.20
81307;DHT22;70775;50.846;3.224;2023-07-30T11:36:12;22.20;59.70
81307;DHT22;70775;50.846;3.224;2023-07-30T11:38:38;22.00;60.80
81307;DHT22;70775;50.846;3.224;2023-07-30T11:41:12;22.00;58.00
81307;DHT22;70775;50.846;3.224;2023-07-30T11:43:39;22.10;59.00
81307;DHT22;70775;50.846;3.224;2023-07-30T11:48:34;22.10;59.80
81307;DHT22;70775;50.846;3.224;2023-07-30T11:51:01;22.10;60.70
81307;DHT22;70775;50.846;3.224;2023-07-30T11:53:49;22.10;61.80
81307;DHT22;70775;50.846;3.224;2023-07-30T11:56:19;22.60;60.10
81307;DHT22;70775;50.846;3.224;2023-07-30T11:58:46;22.70;58.20
81307;DHT22;70775;50.846;3.224;2023-07-30T12:01:12;22.50;57.10
81307;DHT22;70775;50.846;3.224;2023-07-30T12:03:38;22.30;57.70
81307;DHT22;70775;50.846;3.224;2023-07-30T12:06:09;22.20;58.50
81307;DHT22;70775;50.846;3.224;2023-07-30T12:08:35;22.20;59.90
81307;DHT22;70775;50.846;3.224;2023-07-30T12:11:05;22.10;58.00
81307;DHT22;70775;50.846;3.224;2023-07-30T12:13:31;22.30;58.20
81307;DHT22;70775;50.846;3.224;2023-07-30T12:15:57;22.30;58.60
81307;DHT22;70775;50.846;3.224;2023-07-30T12:18:25;22.40;57.30
81307;DHT22;70775;50.846;3.224;2023-07-30T12:21:00;22.30;58.20
81307;DHT22;70775;50.846;3.224;2023-07-30T12:23:25;22.40;60.20
81307;DHT22;70775;50.846;3.224;2023-07-30T12:25:51;22.70;58.00
81307;DHT22;70775;50.846;3.224;2023-07-30T12:28:26;22.50;58.60
81307;DHT22;70775;50.846;3.224;2023-07-30T12:30:51;22.40;59.20
81307;DHT22;70775;50.846;3.224;2023-07-30T12:33:17;22.30;59.90
81307;DHT22;70775;50.846;3.224;2023-07-30T12:35:43;22.40;59.70
81307;DHT22;70775;50.846;3.224;2023-07-30T12:38:11;22.50;60.10
81307;DHT22;70775;50.846;3.224;2023-07-30T12:40:48;22.30;60.10
81307;DHT22;70775;50.846;3.224;2023-07-30T12:43:16;22.10;60.90
81307;DHT22;70775;50.846;3.224;2023-07-30T12:46:11;22.20;60.10
81307;DHT22;70775;50.846;3.224;2023-07-30T12:48:37;22.60;60.60
81307;DHT22;70775;50.846;3.224;2023-07-30T12:51:03;22.30;60.70
81307;DHT22;70775;50.846;3.224;2023-07-30T12:53:29;21.90;62.60
81307;DHT22;70775;50.846;3.224;2023-07-30T12:55:54;21.50;63.30
81307;DHT22;70775;50.846;3.224;2023-07-30T12:58:20;21.50;63.60
81307;DHT22;70775;50.846;3.224;2023-07-30T13:00:46;21.50;63.90
81307;DHT22;70775;50.846;3.224;2023-07-30T13:03:12;21.30;63.50
81307;DHT22;70775;50.846;3.224;2023-07-30T13:05:38;21.20;63.80
81307;DHT22;70775;50.846;3.224;2023-07-30T13:08:03;21.10;64.40
81307;DHT22;70775;50.846;3.224;2023-07-30T13:10:29;21.10;64.90
81307;DHT22;70775;50.846;3.224;2023-07-30T13:12:55;21.30;64.90
81307;DHT22;70775;50.846;3.224;2023-07-30T13:15:24;21.60;64.90
81307;DHT22;70775;50.846;3.224;2023-07-30T13:17:50;22.10;64.20
81307;DHT22;70775;50.846;3.224;2023-07-30T13:20:18;22.30;63.00
81307;DHT22;70775;50.846;3.224;2023-07-30T13:22:54;22.10;62.10
81307;DHT22;70775;50.846;3.224;2023-07-30T13:25:34;22.20;62.10
81307;DHT22;70775;50.846;3.224;2023-07-30T13:27:59;22.20;61.60
81307;DHT22;70775;50.846;3.224;2023-07-30T13:30:25;22.10;61.20
81307;DHT22;70775;50.846;3.224;2023-07-30T13:32:50;21.90;61.40
81307;DHT22;70775;50.846;3.224;2023-07-30T13:35:16;22.20;60.70
81307;DHT22;70775;50.846;3.224;2023-07-30T13:37:42;22.40;61.60
81307;DHT22;70775;50.846;3.224;2023-07-30T13:40:09;22.00;61.60
81307;DHT22;70775;50.846;3.224;2023-07-30T13:42:39;21.90;63.10
81307;DHT22;70775;50.846;3.224;2023-07-30T13:45:05;21.80;62.40
81307;DHT22;70775;50.846;3.224;2023-07-30T13:47:31;21.70;63.50
81307;DHT22;70775;50.846;3.224;2023-07-30T13:50:24;21.40;64.60
81307;DHT22;70775;50.846;3.224;2023-07-30T13:53:00;21.10;64.80
81307;DHT22;70775;50.846;3.224;2023-07-30T13:55:45;21.10;66.20
81307;DHT22;70775;50.846;3.224;2023-07-30T13:58:33;20.80;65.70
81307;DHT22;70775;50.846;3.224;2023-07-30T14:04:21;20.50;67.80
81307;DHT22;70775;50.846;3.224;2023-07-30T14:06:47;20.50;68.70
81307;DHT22;70775;50.846;3.224;2023-07-30T14:09:13;20.40;69.00
81307;DHT22;70775;50.846;3.224;2023-07-30T14:11:40;20.40;70.40
81307;DHT22;70775;50.846;3.224;2023-07-30T14:14:10;20.40;70.70
81307;DHT22;70775;50.846;3.224;2023-07-30T14:16:35;20.10;72.00
81307;DHT22;70775;50.846;3.224;2023-07-30T14:19:01;19.90;72.40
81307;DHT22;70775;50.846;3.224;2023-07-30T14:21:30;19.90;74.30
81307;DHT22;70775;50.846;3.224;2023-07-30T14:24:01;19.60;74.60
81307;DHT22;70775;50.846;3.224;2023-07-30T14:29:31;19.40;75.60
81307;DHT22;70775;50.846;3.224;2023-07-30T14:31:57;19.60;75.50
81307;DHT22;70775;50.846;3.224;2023-07-30T14:37:28;19.70;75.40
81307;DHT22;70775;50.846;3.224;2023-07-30T14:39:53;19.70;75.30
81307;DHT22;70775;50.846;3.224;2023-07-30T14:42:22;19.60;75.30
81307;DHT22;70775;50.846;3.224;2023-07-30T14:45:12;19.50;75.60
81307;DHT22;70775;50.846;3.224;2023-07-30T14:47:37;19.60;75.40
81307;DHT22;70775;50.846;3.224;2023-07-30T14:50:05;19.60;75.50
81307;DHT22;70775;50.846;3.224;2023-07-30T14:52:50;19.50;75.30
81307;DHT22;70775;50.846;3.224;2023-07-30T14:55:27;19.70;75.00
81307;DHT22;70775;50.846;3.224;2023-07-30T14:57:52;19.60;75.30
81307;DHT22;70775;50.846;3.224;2023-07-30T15:00:18;19.70;75.90
81307;DHT22;70775;50.846;3.224;2023-07-30T15:02:44;19.60;76.40
81307;DHT22;70775;50.846;3.224;2023-07-30T15:05:17;19.40;78.40
81307;DHT22;70775;50.846;3.224;2023-07-30T15:07:43;19.20;80.00
81307;DHT22;70775;50.846;3.224;2023-07-30T15:10:09;19.10;80.10
81307;DHT22;70775;50.846;3.224;2023-07-30T15:12:35;19.00;81.30
81307;DHT22;70775;50.846;3.224;2023-07-30T15:15:02;18.70;83.80
81307;DHT22;70775;50.846;3.224;2023-07-30T15:17:28;18.60;85.10
81307;DHT22;70775;50.846;3.224;2023-07-30T15:19:53;18.50;86.40
81307;DHT22;70775;50.846;3.224;2023-07-30T15:22:20;18.40;86.70
81307;DHT22;70775;50.846;3.224;2023-07-30T15:24:45;18.50;86.90
81307;DHT22;70775;50.846;3.224;2023-07-30T15:27:14;18.30;88.50
81307;DHT22;70775;50.846;3.224;2023-07-30T15:29:40;18.20;89.10
81307;DHT22;70775;50.846;3.224;2023-07-30T15:32:06;18.10;89.80
81307;DHT22;70775;50.846;3.224;2023-07-30T15:34:31;18.00;90.80
81307;DHT22;70775;50.846;3.224;2023-07-30T15:36:57;18.00;90.80
81307;DHT22;70775;50.846;3.224;2023-07-30T15:39:24;17.80;91.60
81307;DHT22;70775;50.846;3.224;2023-07-30T15:41:50;17.70;92.10
81307;DHT22;70775;50.846;3.224;2023-07-30T15:44:18;17.80;92.20
81307;DHT22;70775;50.846;3.224;2023-07-30T15:46:45;17.70;92.10
81307;DHT22;70775;50.846;3.224;2023-07-30T15:49:11;17.60;92.80
81307;DHT22;70775;50.846;3.224;2023-07-30T15:52:03;17.80;92.40
81307;DHT22;70775;50.846;3.224;2023-07-30T15:54:36;17.80;92.00
81307;DHT22;70775;50.846;3.224;2023-07-30T15:57:37;17.70;92.60
81307;DHT22;70775;50.846;3.224;2023-07-30T16:00:03;17.80;92.40
81307;DHT22;70775;50.846;3.224;2023-07-30T16:02:32;17.80;92.30
81307;DHT22;70775;50.846;3.224;2023-07-30T16:05:01;17.80;92.10
81307;DHT22;70775;50.846;3.224;2023-07-30T16:07:34;17.80;92.40
81307;DHT22;70775;50.846;3.224;2023-07-30T16:10:07;17.70;92.50
81307;DHT22;70775;50.846;3.224;2023-07-30T16:12:33;17.80;92.70
81307;DHT22;70775;50.846;3.224;2023-07-30T16:15:00;17.70;93.10
81307;DHT22;70775;50.846;3.224;2023-07-30T16:17:37;17.60;93.30
81307;DHT22;70775;50.846;3.224;2023-07-30T16:20:22;17.70;93.60
81307;DHT22;70775;50.846;3.224;2023-07-30T16:23:04;17.60;93.50
81307;DHT22;70775;50.846;3.224;2023-07-30T16:25:30;17.60;93.70
81307;DHT22;70775;50.846;3.224;2023-07-30T16:27:55;17.70;93.90
81307;DHT22;70775;50.846;3.224;2023-07-30T16:30:21;17.60;93.40
81307;DHT22;70775;50.846;3.224;2023-07-30T16:32:47;17.60;93.60
81307;DHT22;70775;50.846;3.224;2023-07-30T16:35:14;17.70;93.90
81307;DHT22;70775;50.846;3.224;2023-07-30T16:37:44;17.70;93.60
81307;DHT22;70775;50.846;3.224;2023-07-30T16:40:10;17.80;93.30
81307;DHT22;70775;50.846;3.224;2023-07-30T16:42:37;17.90;93.80